Roza A — TCRB7 — position and weather

sailwx.info

Track history (hours):
 
Tides and Currents Weather Stations Pressure Air Temp Water Temp Dewpoint Dewpoint Depression Visibility Wind Speed Wind Dir Waves Ship Positions

Roza A

Last reported at 2015-Aug-01 21:24 UTC. Time now 2015-Aug-01 22:18 UTC.
Position N 39°19' E 013°54'.

Length 169 m; draft 8.6 m.

Type: Ship (hazmat cat A). MMSI: 271001057.

Date/timePositionNaut miles runAvg speedWind from/ knotsBaromVisibWave heightAir tempDewpointWater temp
2015-Aug-01 21:24N 39°19' E 013°54'1213.9
2015-Aug-01 20:33N 39°25' E 013°41'1414.2
2015-Aug-01 19:33N 39°32' E 013°25'1414.3
2015-Aug-01 18:33N 39°39' E 013°09'1514.5
2015-Aug-01 17:33N 39°47' E 012°53'2914.6
2015-Aug-01 15:32N 40°02' E 012°20'2914.4
2015-Aug-01 13:33N 40°17' E 011°48'1414.1
2015-Aug-01 12:31N 40°24' E 011°32'1414.0
2015-Aug-01 11:33N 40°31' E 011°17'1413.9
2015-Aug-01 10:33N 40°39' E 011°01'1814.4
2015-Aug-01 09:20N 40°48' E 010°41'1315.1
2015-Aug-01 08:30N 40°54' E 010°27'1414.8
2015-Aug-01 07:33N 41°02' E 010°11'9413.5
2015-Aug-01 00:34N 41°38' E 008°15'1514.6
2015-Jul-31 23:33N 41°46' E 007°59'1514.5
2015-Jul-31 22:33N 41°54' E 007°42'1414.5
2015-Jul-31 21:33N 42°01' E 007°26'1514.8
2015-Jul-31 20:33N 42°09' E 007°09'1514.8
2015-Jul-31 19:33N 42°17' E 006°52'1414.3
2015-Jul-31 18:33N 42°25' E 006°36'1413.9
2015-Jul-31 17:33N 42°32' E 006°20'1414.1
2015-Jul-31 16:33N 42°40' E 006°04'1414.1
2015-Jul-31 15:33N 42°47' E 005°47'1514.2
2015-Jul-31 14:31N 42°55' E 005°30'1414.2
2015-Jul-31 13:33N 43°03' E 005°15'1414.1
2015-Jul-31 12:33N 43°13' E 005°01'1211.9
2015-Jul-31 11:33N 43°24' E 004°55'3 2.9
2015-Jul-31 10:33N 43°24' E 004°51'0 0.0
2015-Jul-31 09:33N 43°24' E 004°51'0 0.0
2015-Jul-31 08:33N 43°24' E 004°51'0 0.0
2015-Jul-31 07:33N 43°24' E 004°51'0 0.0
2015-Jul-31 06:33N 43°24' E 004°51'0 0.0
2015-Jul-31 05:33N 43°24' E 004°51'0 0.0
2015-Jul-31 04:33N 43°24' E 004°51'0 0.0
2015-Jul-31 03:33N 43°24' E 004°51'0 0.0
2015-Jul-31 02:33N 43°24' E 004°51'0 0.0
2015-Jul-31 01:33N 43°24' E 004°51'0 0.0
2015-Jul-31 00:33N 43°24' E 004°51'0 0.0
2015-Jul-30 23:33N 43°24' E 004°51'0 0.0
2015-Jul-30 22:33N 43°24' E 004°51'0 0.0
2015-Jul-30 21:33N 43°24' E 004°51'0 0.0
2015-Jul-30 20:33N 43°24' E 004°51'7 7.0
2015-Jul-30 19:34N 43°21' E 004°59'9 9.4
2015-Jul-30 18:34N 43°12' E 005°03'1010.1
2015-Jul-30 17:33N 43°04' E 004°54'1010.3
2015-Jul-30 16:33N 42°56' E 004°45'1010.2
2015-Jul-30 15:33N 42°48' E 004°36'10 9.7
2015-Jul-30 14:33N 42°41' E 004°27'10 9.6
2015-Jul-30 13:33N 42°34' E 004°18'10 9.7
2015-Jul-30 12:33N 42°26' E 004°10'10 9.7
2015-Jul-30 11:33N 42°19' E 004°01'10 9.3
2015-Jul-30 10:31N 42°11' E 003°53'9 9.1
2015-Jul-30 09:33N 42°05' E 003°46'136 4.7
2015-Jul-29 04:28N 40°37' E 001°27'1213.0
2015-Jul-29 03:34N 40°31' E 001°14'1313.3
2015-Jul-29 02:33N 40°24' E 000°60'1413.3
2015-Jul-29 01:32N 40°16' E 000°45'36 1.2
2015-Jul-27 19:19N 39°58' E 000°04'0 0.1
2015-Jul-27 18:31N 39°58' E 000°05'8 8.5
2015-Jul-27 17:32N 39°50' E 000°07'1413.7
2015-Jul-27 16:33N 39°38' W 000°02'1313.2
2015-Jul-27 15:33N 39°28' W 000°13'5 4.7
2015-Jul-27 14:33N 39°27' W 000°19'0 0.0
2015-Jul-27 13:33N 39°27' W 000°19'0 0.0
2015-Jul-27 12:33N 39°27' W 000°19'0 0.0
2015-Jul-27 11:33N 39°27' W 000°19'0 0.0
2015-Jul-27 10:33N 39°27' W 000°19'0 0.0
2015-Jul-27 09:33N 39°27' W 000°19'0 0.0
2015-Jul-27 08:27N 39°27' W 000°19'0 0.0
2015-Jul-27 07:33N 39°27' W 000°19'0 0.0
2015-Jul-27 06:33N 39°27' W 000°19'0 0.0
2015-Jul-27 05:30N 39°27' W 000°19'0 0.0
2015-Jul-27 04:33N 39°27' W 000°19'0 0.0
2015-Jul-27 03:33N 39°27' W 000°19'0 0.0
2015-Jul-27 02:33N 39°27' W 000°19'0 0.0
2015-Jul-27 01:33N 39°27' W 000°19'0 0.0
2015-Jul-27 00:33N 39°27' W 000°19'0 0.0
2015-Jul-26 23:33N 39°27' W 000°19'0 0.0
2015-Jul-26 22:33N 39°27' W 000°19'0 0.0
2015-Jul-26 21:27N 39°27' W 000°19'0 0.0
2015-Jul-26 20:33N 39°27' W 000°19'0 0.0
2015-Jul-26 19:33N 39°27' W 000°19'0 0.0
2015-Jul-26 18:33N 39°27' W 000°19'0 0.0
2015-Jul-26 17:33N 39°27' W 000°19'3 3.2
2015-Jul-26 16:33N 39°25' W 000°16'80 9.6
2015-Jul-26 08:18N 39°12' E 001°26'810.2
2015-Jul-26 07:33N 39°10' E 001°35'1010.1
2015-Jul-26 06:33N 39°08' E 001°48'1110.0
2015-Jul-26 05:29N 39°06' E 002°02'3210.0
2015-Jul-26 02:19N 39°03' E 002°42'810.0
2015-Jul-26 01:33N 39°03' E 002°52'10 9.9
2015-Jul-26 00:32N 39°02' E 003°05'10 9.8
2015-Jul-25 23:31N 39°01' E 003°18'10 9.8
2015-Jul-25 22:33N 39°01' E 003°30'1010.1
2015-Jul-25 21:33N 39°00' E 003°43'24310.1
2015-Jul-24 21:33N 38°51' E 008°54'1010.1
2015-Jul-24 20:33N 38°58' E 009°04'10 9.6
2015-Jul-24 19:33N 39°07' E 009°06'6 6.1
2015-Jul-24 18:33N 39°13' E 009°04'0 0.0
2015-Jul-24 17:33N 39°13' E 009°04'0 0.0
2015-Jul-24 16:33N 39°13' E 009°04'0 0.0
2015-Jul-24 15:33N 39°13' E 009°04'0 0.0
2015-Jul-24 14:33N 39°13' E 009°04'0 0.0
2015-Jul-24 13:33N 39°13' E 009°04'0 0.0
2015-Jul-24 12:33N 39°13' E 009°04'0 0.0
2015-Jul-24 11:33N 39°13' E 009°04'0 0.0
2015-Jul-24 10:33N 39°13' E 009°04'0 0.0
2015-Jul-24 09:33N 39°13' E 009°04'0 0.0
2015-Jul-24 08:33N 39°13' E 009°04'0 0.0
2015-Jul-24 07:33N 39°13' E 009°04'3 3.5
2015-Jul-24 06:33N 39°10' E 009°06'1211.9
2015-Jul-24 05:33N 39°02' E 009°18'1414.0
2015-Jul-24 04:33N 38°54' E 009°33'2813.9
2015-Jul-24 02:33N 38°39' E 010°03'1414.2
2015-Jul-24 01:32N 38°32' E 010°19'1414.4
2015-Jul-24 00:33N 38°25' E 010°35'10314.3
2015-Jul-23 17:22N 37°28' E 012°23'1214.5
2015-Jul-23 16:33N 37°21' E 012°35'1414.1
2015-Jul-23 15:33N 37°13' E 012°50'1413.9
2015-Jul-23 14:33N 37°08' E 013°06'1413.7
2015-Jul-23 13:33N 37°02' E 013°21'1413.6
2015-Jul-23 12:33N 36°57' E 013°37'1414.2
2015-Jul-23 11:33N 36°51' E 013°54'1514.6
2015-Jul-23 10:33N 36°46' E 014°10'1515.0
2015-Jul-23 09:33N 36°40' E 014°28'1514.9
2015-Jul-23 08:32N 36°36' E 014°46'1515.0
2015-Jul-23 07:33N 36°32' E 015°04'1514.9
2015-Jul-23 06:33N 36°32' E 015°22'1514.8
2015-Jul-23 05:33N 36°31' E 015°41'6514.9
2015-Jul-23 01:10N 36°29' E 017°02'3014.6
2015-Jul-22 23:07N 36°28' E 017°39'1014.6
2015-Jul-22 22:24N 36°28' E 017°52'  
Track history (hours):
 
Tides and Currents Weather Stations Pressure Air Temp Water Temp Dewpoint Dewpoint Depression Visibility Wind Speed Wind Dir Waves Ship Positions

Roza A

Last reported at 2015-Aug-01 21:24 UTC. Time now 2015-Aug-01 22:18 UTC.
Position N 39°19' E 013°54'.

Length 169 m; draft 8.6 m.

Type: Ship (hazmat cat A). MMSI: 271001057.

Date/timePositionNaut miles runAvg speedWind from/ knotsBaromVisibWave heightAir tempDewpointWater temp
2015-Aug-01 21:24N 39°19' E 013°54'1213.9
2015-Aug-01 20:33N 39°25' E 013°41'1414.2
2015-Aug-01 19:33N 39°32' E 013°25'1414.3
2015-Aug-01 18:33N 39°39' E 013°09'1514.5
2015-Aug-01 17:33N 39°47' E 012°53'2914.6
2015-Aug-01 15:32N 40°02' E 012°20'2914.4
2015-Aug-01 13:33N 40°17' E 011°48'1414.1
2015-Aug-01 12:31N 40°24' E 011°32'1414.0
2015-Aug-01 11:33N 40°31' E 011°17'1413.9
2015-Aug-01 10:33N 40°39' E 011°01'1814.4
2015-Aug-01 09:20N 40°48' E 010°41'1315.1
2015-Aug-01 08:30N 40°54' E 010°27'1414.8
2015-Aug-01 07:33N 41°02' E 010°11'9413.5
2015-Aug-01 00:34N 41°38' E 008°15'1514.6
2015-Jul-31 23:33N 41°46' E 007°59'1514.5
2015-Jul-31 22:33N 41°54' E 007°42'1414.5
2015-Jul-31 21:33N 42°01' E 007°26'1514.8
2015-Jul-31 20:33N 42°09' E 007°09'1514.8
2015-Jul-31 19:33N 42°17' E 006°52'1414.3
2015-Jul-31 18:33N 42°25' E 006°36'1413.9
2015-Jul-31 17:33N 42°32' E 006°20'1414.1
2015-Jul-31 16:33N 42°40' E 006°04'1414.1
2015-Jul-31 15:33N 42°47' E 005°47'1514.2
2015-Jul-31 14:31N 42°55' E 005°30'1414.2
2015-Jul-31 13:33N 43°03' E 005°15'1414.1
2015-Jul-31 12:33N 43°13' E 005°01'1211.9
2015-Jul-31 11:33N 43°24' E 004°55'3 2.9
2015-Jul-31 10:33N 43°24' E 004°51'0 0.0
2015-Jul-31 09:33N 43°24' E 004°51'0 0.0
2015-Jul-31 08:33N 43°24' E 004°51'0 0.0
2015-Jul-31 07:33N 43°24' E 004°51'0 0.0
2015-Jul-31 06:33N 43°24' E 004°51'0 0.0
2015-Jul-31 05:33N 43°24' E 004°51'0 0.0
2015-Jul-31 04:33N 43°24' E 004°51'0 0.0
2015-Jul-31 03:33N 43°24' E 004°51'0 0.0
2015-Jul-31 02:33N 43°24' E 004°51'0 0.0
2015-Jul-31 01:33N 43°24' E 004°51'0 0.0
2015-Jul-31 00:33N 43°24' E 004°51'0 0.0
2015-Jul-30 23:33N 43°24' E 004°51'0 0.0
2015-Jul-30 22:33N 43°24' E 004°51'0 0.0
2015-Jul-30 21:33N 43°24' E 004°51'0 0.0
2015-Jul-30 20:33N 43°24' E 004°51'7 7.0
2015-Jul-30 19:34N 43°21' E 004°59'9 9.4
2015-Jul-30 18:34N 43°12' E 005°03'1010.1
2015-Jul-30 17:33N 43°04' E 004°54'1010.3
2015-Jul-30 16:33N 42°56' E 004°45'1010.2
2015-Jul-30 15:33N 42°48' E 004°36'10 9.7
2015-Jul-30 14:33N 42°41' E 004°27'10 9.6
2015-Jul-30 13:33N 42°34' E 004°18'10 9.7
2015-Jul-30 12:33N 42°26' E 004°10'10 9.7
2015-Jul-30 11:33N 42°19' E 004°01'10 9.3
2015-Jul-30 10:31N 42°11' E 003°53'9 9.1
2015-Jul-30 09:33N 42°05' E 003°46'136 4.7
2015-Jul-29 04:28N 40°37' E 001°27'1213.0
2015-Jul-29 03:34N 40°31' E 001°14'1313.3
2015-Jul-29 02:33N 40°24' E 000°60'1413.3
2015-Jul-29 01:32N 40°16' E 000°45'36 1.2
2015-Jul-27 19:19N 39°58' E 000°04'0 0.1
2015-Jul-27 18:31N 39°58' E 000°05'8 8.5
2015-Jul-27 17:32N 39°50' E 000°07'1413.7
2015-Jul-27 16:33N 39°38' W 000°02'1313.2
2015-Jul-27 15:33N 39°28' W 000°13'5 4.7
2015-Jul-27 14:33N 39°27' W 000°19'0 0.0
2015-Jul-27 13:33N 39°27' W 000°19'0 0.0
2015-Jul-27 12:33N 39°27' W 000°19'0 0.0
2015-Jul-27 11:33N 39°27' W 000°19'0 0.0
2015-Jul-27 10:33N 39°27' W 000°19'0 0.0
2015-Jul-27 09:33N 39°27' W 000°19'0 0.0
2015-Jul-27 08:27N 39°27' W 000°19'0 0.0
2015-Jul-27 07:33N 39°27' W 000°19'0 0.0
2015-Jul-27 06:33N 39°27' W 000°19'0 0.0
2015-Jul-27 05:30N 39°27' W 000°19'0 0.0
2015-Jul-27 04:33N 39°27' W 000°19'0 0.0
2015-Jul-27 03:33N 39°27' W 000°19'0 0.0
2015-Jul-27 02:33N 39°27' W 000°19'0 0.0
2015-Jul-27 01:33N 39°27' W 000°19'0 0.0
2015-Jul-27 00:33N 39°27' W 000°19'0 0.0
2015-Jul-26 23:33N 39°27' W 000°19'0 0.0
2015-Jul-26 22:33N 39°27' W 000°19'0 0.0
2015-Jul-26 21:27N 39°27' W 000°19'0 0.0
2015-Jul-26 20:33N 39°27' W 000°19'0 0.0
2015-Jul-26 19:33N 39°27' W 000°19'0 0.0
2015-Jul-26 18:33N 39°27' W 000°19'0 0.0
2015-Jul-26 17:33N 39°27' W 000°19'3 3.2
2015-Jul-26 16:33N 39°25' W 000°16'80 9.6
2015-Jul-26 08:18N 39°12' E 001°26'810.2
2015-Jul-26 07:33N 39°10' E 001°35'1010.1
2015-Jul-26 06:33N 39°08' E 001°48'1110.0
2015-Jul-26 05:29N 39°06' E 002°02'3210.0
2015-Jul-26 02:19N 39°03' E 002°42'810.0
2015-Jul-26 01:33N 39°03' E 002°52'10 9.9
2015-Jul-26 00:32N 39°02' E 003°05'10 9.8
2015-Jul-25 23:31N 39°01' E 003°18'10 9.8
2015-Jul-25 22:33N 39°01' E 003°30'1010.1
2015-Jul-25 21:33N 39°00' E 003°43'24310.1
2015-Jul-24 21:33N 38°51' E 008°54'1010.1
2015-Jul-24 20:33N 38°58' E 009°04'10 9.6
2015-Jul-24 19:33N 39°07' E 009°06'6 6.1
2015-Jul-24 18:33N 39°13' E 009°04'0 0.0
2015-Jul-24 17:33N 39°13' E 009°04'0 0.0
2015-Jul-24 16:33N 39°13' E 009°04'0 0.0
2015-Jul-24 15:33N 39°13' E 009°04'0 0.0
2015-Jul-24 14:33N 39°13' E 009°04'0 0.0
2015-Jul-24 13:33N 39°13' E 009°04'0 0.0
2015-Jul-24 12:33N 39°13' E 009°04'0 0.0
2015-Jul-24 11:33N 39°13' E 009°04'0 0.0
2015-Jul-24 10:33N 39°13' E 009°04'0 0.0
2015-Jul-24 09:33N 39°13' E 009°04'0 0.0
2015-Jul-24 08:33N 39°13' E 009°04'0 0.0
2015-Jul-24 07:33N 39°13' E 009°04'3 3.5
2015-Jul-24 06:33N 39°10' E 009°06'1211.9
2015-Jul-24 05:33N 39°02' E 009°18'1414.0
2015-Jul-24 04:33N 38°54' E 009°33'2813.9
2015-Jul-24 02:33N 38°39' E 010°03'1414.2
2015-Jul-24 01:32N 38°32' E 010°19'1414.4
2015-Jul-24 00:33N 38°25' E 010°35'10314.3
2015-Jul-23 17:22N 37°28' E 012°23'1214.5
2015-Jul-23 16:33N 37°21' E 012°35'1414.1
2015-Jul-23 15:33N 37°13' E 012°50'1413.9
2015-Jul-23 14:33N 37°08' E 013°06'1413.7
2015-Jul-23 13:33N 37°02' E 013°21'1413.6
2015-Jul-23 12:33N 36°57' E 013°37'1414.2
2015-Jul-23 11:33N 36°51' E 013°54'1514.6
2015-Jul-23 10:33N 36°46' E 014°10'1515.0
2015-Jul-23 09:33N 36°40' E 014°28'1514.9
2015-Jul-23 08:32N 36°36' E 014°46'1515.0
2015-Jul-23 07:33N 36°32' E 015°04'1514.9
2015-Jul-23 06:33N 36°32' E 015°22'1514.8
2015-Jul-23 05:33N 36°31' E 015°41'6514.9
2015-Jul-23 01:10N 36°29' E 017°02'3014.6
2015-Jul-22 23:07N 36°28' E 017°39'1014.6
2015-Jul-22 22:24N 36°28' E 017°52'  

Dump ship's entire track history